createdAt,value
2022-12-04T00:00:24.560Z,102.70
2022-12-04T00:02:51.143Z,109.53
2022-12-04T00:05:17.747Z,102.57
2022-12-04T00:07:45.303Z,92.90
2022-12-04T00:10:12.135Z,96.60
2022-12-04T00:12:38.581Z,97.47
2022-12-04T00:17:52.130Z,97.95
2022-12-04T00:20:18.561Z,94.70
2022-12-04T00:22:44.996Z,95.38
2022-12-04T00:25:11.439Z,93.30
2022-12-04T00:27:37.851Z,102.82
2022-12-04T00:30:05.102Z,90.82
2022-12-04T00:32:31.527Z,96.35
2022-12-04T00:34:57.932Z,99.28
2022-12-04T00:37:24.505Z,96.57
2022-12-04T00:39:50.966Z,103.30
2022-12-04T00:42:17.466Z,86.40
2022-12-04T00:44:43.872Z,90.75
2022-12-04T00:47:10.566Z,91.78
2022-12-04T00:49:37.238Z,81.93
2022-12-04T00:52:03.833Z,90.75
2022-12-04T00:54:31.687Z,89.97
2022-12-04T00:56:58.103Z,92.25
2022-12-04T00:59:24.492Z,89.20
2022-12-04T01:01:51.020Z,90.78
2022-12-04T01:04:17.649Z,82.82
2022-12-04T01:06:44.121Z,94.35
2022-12-04T01:09:10.807Z,88.72
2022-12-04T01:11:38.557Z,87.40
2022-12-04T01:14:05.184Z,84.35
2022-12-04T01:16:37.577Z,86.10
2022-12-04T01:19:05.722Z,87.40
2022-12-04T01:21:32.353Z,89.18
2022-12-04T01:23:59.633Z,87.82
2022-12-04T01:26:27.165Z,86.13
2022-12-04T01:28:53.706Z,84.50
2022-12-04T01:31:21.906Z,90.75
2022-12-04T01:33:49.880Z,88.15
2022-12-04T01:36:21.913Z,84.63
2022-12-04T01:38:48.722Z,89.75
2022-12-04T01:41:18.097Z,86.53
2022-12-04T01:43:44.644Z,85.47
2022-12-04T01:46:11.940Z,93.45
2022-12-04T01:48:50.358Z,97.80
2022-12-04T01:51:20.945Z,86.70
2022-12-04T01:53:53.207Z,87.68
2022-12-04T01:56:24.442Z,88.07
2022-12-04T01:58:53.981Z,96.20
2022-12-04T02:01:20.895Z,92.68
2022-12-04T02:03:47.440Z,92.72
2022-12-04T02:06:13.865Z,93.45
2022-12-04T02:08:41.011Z,87.38
2022-12-04T02:11:23.553Z,84.32
2022-12-04T02:14:01.175Z,87.75
2022-12-04T02:16:44.797Z,84.93
2022-12-04T02:19:35.923Z,84.75
2022-12-04T02:22:11.313Z,86.43
2022-12-04T02:24:57.953Z,95.22
2022-12-04T02:27:41.801Z,79.82
2022-12-04T02:30:15.233Z,91.03
2022-12-04T02:33:15.811Z,93.57
2022-12-04T02:36:17.136Z,85.95
2022-12-04T02:39:15.613Z,89.72
2022-12-04T02:41:47.926Z,91.88
2022-12-04T02:44:25.932Z,86.93
2022-12-04T02:46:57.966Z,98.53
2022-12-04T02:49:34.106Z,84.43
2022-12-04T02:52:02.504Z,86.95
2022-12-04T02:54:34.453Z,83.75
2022-12-04T02:57:04.042Z,97.85
2022-12-04T02:59:36.437Z,84.53
2022-12-04T03:02:36.679Z,88.35
2022-12-04T03:05:09.721Z,91.75
2022-12-04T03:07:45.118Z,95.47
2022-12-04T03:10:24.174Z,85.25
2022-12-04T03:12:55.666Z,93.22
2022-12-04T03:15:58.452Z,88.00
2022-12-04T03:18:34.088Z,93.50
2022-12-04T03:21:06.447Z,90.95
2022-12-04T03:23:41.047Z,91.40
2022-12-04T03:26:15.527Z,91.28
2022-12-04T03:29:00.361Z,90.43
2022-12-04T03:31:45.122Z,92.13
2022-12-04T03:34:15.597Z,81.78
2022-12-04T03:36:52.109Z,94.50
2022-12-04T03:39:28.010Z,91.05
2022-12-04T03:42:08.403Z,84.15
2022-12-04T03:44:46.194Z,84.60
2022-12-04T03:47:26.895Z,88.22
2022-12-04T03:50:00.451Z,95.05
2022-12-04T03:52:37.053Z,90.00
2022-12-04T03:55:55.798Z,97.47
2022-12-04T03:58:27.997Z,94.40
2022-12-04T04:00:56.894Z,83.07
2022-12-04T04:03:28.665Z,84.18
2022-12-04T04:06:02.139Z,86.60
2022-12-04T04:08:34.903Z,92.32
2022-12-04T04:11:20.057Z,92.45
2022-12-04T04:14:17.324Z,89.20
2022-12-04T04:17:13.835Z,81.43
2022-12-04T04:20:03.551Z,82.82
2022-12-04T04:22:54.502Z,93.80
2022-12-04T04:25:25.703Z,90.25
2022-12-04T04:27:57.878Z,85.00
2022-12-04T04:30:27.370Z,83.80
2022-12-04T04:33:06.145Z,90.32
2022-12-04T04:35:35.589Z,92.20
2022-12-04T04:38:27.747Z,88.60
2022-12-04T04:41:06.225Z,93.65
2022-12-04T04:43:38.247Z,83.18
2022-12-04T04:46:17.273Z,95.50
2022-12-04T04:48:52.069Z,91.57
2022-12-04T04:51:19.498Z,91.75
2022-12-04T04:53:50.457Z,92.35
2022-12-04T04:56:17.740Z,90.35
2022-12-04T04:58:44.217Z,96.10
2022-12-04T05:01:16.589Z,94.90
2022-12-04T05:03:43.319Z,92.53
2022-12-04T05:06:10.411Z,90.95
2022-12-04T05:08:37.148Z,91.13
2022-12-04T05:11:04.797Z,93.20
2022-12-04T05:13:31.719Z,89.50
2022-12-04T05:16:02.568Z,87.18
2022-12-04T05:18:30.596Z,85.47
2022-12-04T05:20:57.211Z,84.32
2022-12-04T05:23:24.394Z,81.10
2022-12-04T05:25:50.848Z,84.10
2022-12-04T05:28:17.446Z,85.95
2022-12-04T05:30:43.891Z,84.07
2022-12-04T05:33:10.945Z,91.28
2022-12-04T05:35:37.742Z,92.20
2022-12-04T05:38:04.138Z,81.32
2022-12-04T05:40:30.546Z,83.60
2022-12-04T05:42:57.296Z,91.47
2022-12-04T05:45:23.959Z,92.05
2022-12-04T05:47:50.393Z,96.70
2022-12-04T05:50:16.912Z,91.78
2022-12-04T05:52:43.429Z,92.80
2022-12-04T05:55:09.872Z,88.55
2022-12-04T05:57:36.314Z,90.13
2022-12-04T06:00:04.068Z,93.18
2022-12-04T06:02:30.603Z,92.63
2022-12-04T06:04:57.120Z,95.00
2022-12-04T06:07:23.834Z,88.95
2022-12-04T06:09:50.268Z,97.47
2022-12-04T06:12:16.765Z,88.95
2022-12-04T06:14:43.310Z,86.07
2022-12-04T06:17:09.734Z,103.47
2022-12-04T06:19:36.393Z,94.32
2022-12-04T06:22:02.927Z,94.40
2022-12-04T06:24:29.365Z,96.28
2022-12-04T06:27:26.717Z,90.13
2022-12-04T06:29:44.470Z,94.68
2022-12-04T06:32:12.260Z,91.45
2022-12-04T06:34:41.586Z,94.88
2022-12-04T06:37:09.349Z,95.82
2022-12-04T06:39:36.067Z,90.13
2022-12-04T06:42:02.561Z,96.32
2022-12-04T06:44:29.024Z,95.50
2022-12-04T06:46:55.456Z,95.00
2022-12-04T06:49:22.933Z,95.93
2022-12-04T06:51:49.441Z,98.45
2022-12-04T06:54:15.868Z,93.15
2022-12-04T06:56:42.526Z,98.90
2022-12-04T06:59:10.282Z,93.63
2022-12-04T07:01:37.160Z,93.70
2022-12-04T07:04:04.367Z,103.20
2022-12-04T07:06:36.206Z,101.75
2022-12-04T07:09:15.006Z,97.82
2022-12-04T07:11:42.392Z,92.80
2022-12-04T07:14:09.446Z,99.88
2022-12-04T07:16:40.705Z,97.78
2022-12-04T07:19:09.442Z,95.55
2022-12-04T07:21:35.918Z,95.03
2022-12-04T07:24:02.445Z,101.75
2022-12-04T07:26:30.856Z,95.07
2022-12-04T07:28:58.239Z,102.32
2022-12-04T07:31:27.045Z,89.47
2022-12-04T07:33:54.436Z,102.15
2022-12-04T07:36:21.818Z,104.57
2022-12-04T07:38:48.536Z,100.88
2022-12-04T07:41:15.264Z,98.90
2022-12-04T07:43:42.511Z,100.47
2022-12-04T07:46:13.385Z,102.28
2022-12-04T07:48:40.482Z,97.78
2022-12-04T07:51:15.573Z,103.97
2022-12-04T07:53:42.981Z,104.10
2022-12-04T07:56:10.550Z,101.78
2022-12-04T07:58:37.094Z,98.13
2022-12-04T08:01:12.889Z,100.53
2022-12-04T08:03:46.785Z,111.43
2022-12-04T08:06:15.202Z,108.22
2022-12-04T08:08:41.927Z,109.75
2022-12-04T08:11:11.042Z,112.95
2022-12-04T08:13:37.692Z,117.32
2022-12-04T08:16:06.796Z,115.22
2022-12-04T08:18:33.530Z,109.30
2022-12-04T08:21:07.932Z,117.20
2022-12-04T08:23:35.179Z,116.35
2022-12-04T08:26:02.903Z,113.32
2022-12-04T08:28:29.855Z,110.50
2022-12-04T08:31:06.175Z,112.22
2022-12-04T08:33:33.306Z,119.60
2022-12-04T08:36:01.663Z,112.88
2022-12-04T08:38:28.135Z,111.18
2022-12-04T08:40:54.615Z,114.07
2022-12-04T08:43:21.090Z,103.10
2022-12-04T08:45:55.870Z,104.68
2022-12-04T08:48:22.354Z,109.07
2022-12-04T08:50:48.775Z,103.70
2022-12-04T08:53:15.385Z,112.88
2022-12-04T08:55:42.001Z,110.53
2022-12-04T08:58:08.439Z,109.53
2022-12-04T09:00:35.085Z,112.15
2022-12-04T09:03:01.572Z,108.80
2022-12-04T09:05:29.949Z,101.80
2022-12-04T09:07:57.177Z,102.88
2022-12-04T09:10:24.473Z,106.68
2022-12-04T09:12:50.981Z,102.97
2022-12-04T09:15:17.477Z,115.90
2022-12-04T09:17:43.917Z,101.82
2022-12-04T09:20:10.548Z,99.53
2022-12-04T09:23:02.186Z,99.75
2022-12-04T09:25:23.653Z,108.88
2022-12-04T09:27:50.117Z,103.88
2022-12-04T09:30:16.687Z,92.07
2022-12-04T09:32:43.146Z,99.57
2022-12-04T09:35:09.614Z,89.45
2022-12-04T09:37:36.690Z,100.50
2022-12-04T09:40:05.313Z,103.10
2022-12-04T09:42:34.822Z,91.65
2022-12-04T09:45:13.477Z,105.40
2022-12-04T09:47:46.632Z,98.03
2022-12-04T09:50:26.585Z,94.30
2022-12-04T09:53:01.052Z,84.97
2022-12-04T09:55:39.964Z,87.97
2022-12-04T09:58:13.672Z,88.85
2022-12-04T10:00:42.578Z,90.25
2022-12-04T10:03:18.157Z,92.18
2022-12-04T10:06:16.494Z,93.15
2022-12-04T10:08:46.177Z,96.10
2022-12-04T10:11:18.709Z,91.28
2022-12-04T10:14:06.017Z,78.90
2022-12-04T10:16:38.614Z,96.32
2022-12-04T10:19:24.016Z,90.78
2022-12-04T10:21:50.403Z,91.70
2022-12-04T10:24:27.555Z,87.93
2022-12-04T10:26:58.813Z,92.53
2022-12-04T10:29:32.573Z,86.40
2022-12-04T10:32:15.513Z,80.43
2022-12-04T10:34:45.810Z,79.40
2022-12-04T10:37:14.108Z,80.00
2022-12-04T10:39:49.391Z,83.68
2022-12-04T10:42:57.764Z,78.55
2022-12-04T10:45:24.403Z,80.25
2022-12-04T10:47:52.658Z,79.28
2022-12-04T10:50:22.087Z,81.05
2022-12-04T10:52:48.892Z,83.93
2022-12-04T10:55:15.533Z,90.75
2022-12-04T10:57:46.953Z,80.35
2022-12-04T11:00:31.703Z,81.00
2022-12-04T11:03:08.498Z,78.35
2022-12-04T11:05:42.800Z,80.20
2022-12-04T11:08:22.372Z,80.70
2022-12-04T11:10:57.820Z,79.30
2022-12-04T11:13:24.725Z,81.55
2022-12-04T11:15:54.354Z,73.97
2022-12-04T11:18:23.947Z,79.32
2022-12-04T11:21:03.289Z,83.93
2022-12-04T11:23:34.223Z,86.23
2022-12-04T11:26:05.873Z,86.57
2022-12-04T11:28:41.777Z,85.20
2022-12-04T11:31:15.701Z,80.88
2022-12-04T11:33:49.198Z,93.63
2022-12-04T11:36:42.241Z,86.35
2022-12-04T11:39:20.424Z,81.35
2022-12-04T11:41:46.963Z,77.32
2022-12-04T11:44:30.236Z,74.85
2022-12-04T11:47:01.823Z,76.75
2022-12-04T11:49:29.848Z,72.80
2022-12-04T11:51:56.511Z,77.32
2022-12-04T11:54:38.020Z,78.60
2022-12-04T11:57:19.314Z,76.97
2022-12-04T11:59:56.963Z,79.47
2022-12-04T12:02:48.871Z,76.43
2022-12-04T12:05:15.319Z,75.80
2022-12-04T12:08:03.234Z,74.93
2022-12-04T12:10:33.129Z,78.93
2022-12-04T12:13:30.494Z,77.70
2022-12-04T12:16:06.065Z,71.32
2022-12-04T12:19:08.498Z,78.45
2022-12-04T12:21:51.134Z,77.10
2022-12-04T12:24:55.439Z,74.45
2022-12-04T12:27:50.445Z,75.38
2022-12-04T12:30:21.997Z,76.03
2022-12-04T12:33:16.603Z,71.32
2022-12-04T12:36:04.779Z,66.65
2022-12-04T12:38:41.772Z,71.70
2022-12-04T12:41:16.599Z,70.22
2022-12-04T12:43:49.185Z,68.55
2022-12-04T12:46:39.229Z,74.72
2022-12-04T12:49:14.350Z,71.78
2022-12-04T12:51:46.973Z,73.20
2022-12-04T12:54:45.926Z,80.68
2022-12-04T12:57:20.299Z,66.03
2022-12-04T12:59:51.735Z,66.50
2022-12-04T13:02:37.020Z,63.83
2022-12-04T13:05:10.800Z,59.47
2022-12-04T13:07:58.892Z,68.55
2022-12-04T13:10:44.122Z,71.43
2022-12-04T13:13:22.127Z,72.07
2022-12-04T13:16:08.013Z,69.43
2022-12-04T13:18:41.863Z,66.05
2022-12-04T13:21:17.186Z,68.50
2022-12-04T13:24:19.410Z,70.05
2022-12-04T13:27:01.097Z,64.55
2022-12-04T13:29:59.568Z,63.25
2022-12-04T13:32:54.450Z,70.07
2022-12-04T13:35:21.042Z,59.50
2022-12-04T13:38:18.182Z,59.20
2022-12-04T13:40:51.353Z,57.08
2022-12-04T13:43:30.904Z,61.00
2022-12-04T13:46:01.857Z,57.35
2022-12-04T13:48:36.806Z,56.33
2022-12-04T13:51:05.340Z,59.63
2022-12-04T13:53:37.268Z,54.22
2022-12-04T13:56:09.418Z,57.08
2022-12-04T13:58:37.839Z,56.78
2022-12-04T14:01:30.850Z,52.85
2022-12-04T14:03:59.605Z,56.70
2022-12-04T14:06:34.077Z,53.97
2022-12-04T14:09:04.805Z,61.63
2022-12-04T14:11:42.496Z,58.22
2022-12-04T14:14:26.820Z,56.88
2022-12-04T14:16:54.928Z,59.42
2022-12-04T14:19:29.273Z,57.53
2022-12-04T14:21:55.831Z,50.60
2022-12-04T14:24:25.545Z,57.00
2022-12-04T14:29:49.464Z,54.38
2022-12-04T14:32:21.356Z,64.68
2022-12-04T14:34:48.628Z,55.28
2022-12-04T14:37:31.380Z,58.95
2022-12-04T14:40:00.617Z,58.78
2022-12-04T14:42:48.876Z,62.63
2022-12-04T14:45:31.243Z,66.18
2022-12-04T14:48:28.827Z,65.88
2022-12-04T14:51:18.293Z,54.95
2022-12-04T14:53:50.902Z,69.18
2022-12-04T14:56:35.454Z,64.05
2022-12-04T14:59:16.942Z,59.47
2022-12-04T15:01:47.108Z,64.07
2022-12-04T15:04:23.156Z,67.30
2022-12-04T15:06:55.416Z,66.60
2022-12-04T15:09:43.748Z,64.93
2022-12-04T15:12:34.167Z,73.88
2022-12-04T15:15:28.520Z,62.38
2022-12-04T15:18:02.512Z,73.95
2022-12-04T15:20:39.408Z,71.90
2022-12-04T15:23:06.411Z,66.15
2022-12-04T15:25:54.333Z,69.05
2022-12-04T15:28:40.711Z,68.18
2022-12-04T15:31:14.413Z,67.28
2022-12-04T15:33:41.653Z,62.15
2022-12-04T15:36:18.195Z,68.50
2022-12-04T15:38:46.610Z,79.97
2022-12-04T15:41:45.707Z,67.15
2022-12-04T15:44:32.182Z,65.53
2022-12-04T15:47:01.830Z,71.90
2022-12-04T15:49:32.573Z,68.25
2022-12-04T15:52:13.299Z,62.92
2022-12-04T15:54:53.665Z,68.32
2022-12-04T15:58:12.440Z,73.45
2022-12-04T16:00:42.375Z,76.57
2022-12-04T16:03:37.377Z,66.63
2022-12-04T16:06:05.522Z,66.90
2022-12-04T16:08:38.518Z,70.78
2022-12-04T16:11:06.503Z,69.80
2022-12-04T16:13:38.550Z,73.50
2022-12-04T16:16:08.168Z,73.22
2022-12-04T16:18:34.956Z,71.55
2022-12-04T16:21:01.725Z,70.80
2022-12-04T16:23:28.195Z,73.03
2022-12-04T16:25:54.670Z,69.38
2022-12-04T16:28:21.192Z,61.15
2022-12-04T16:30:50.015Z,68.15
2022-12-04T16:33:16.642Z,68.90
2022-12-04T16:35:43.040Z,65.15
2022-12-04T16:38:15.553Z,66.07
2022-12-04T16:40:43.065Z,67.38
2022-12-04T16:43:13.833Z,66.53
2022-12-04T16:45:45.291Z,65.68
2022-12-04T16:48:11.831Z,71.88
2022-12-04T16:50:38.302Z,67.75
2022-12-04T16:53:04.792Z,77.20
2022-12-04T16:55:34.670Z,62.50
2022-12-04T16:58:02.778Z,63.90
2022-12-04T17:00:29.636Z,67.60
2022-12-04T17:02:56.745Z,68.60
2022-12-04T17:05:26.745Z,70.82
2022-12-04T17:07:53.895Z,69.47
2022-12-04T17:10:24.034Z,65.22
2022-12-04T17:12:53.468Z,68.85
2022-12-04T17:15:19.926Z,68.90
2022-12-04T17:17:46.609Z,65.15
2022-12-04T17:20:16.040Z,73.00
2022-12-04T17:22:42.830Z,69.27
2022-12-04T17:25:09.999Z,71.85
2022-12-04T17:27:37.020Z,60.78
2022-12-04T17:30:05.011Z,62.83
2022-12-04T17:32:32.628Z,73.03
2022-12-04T17:34:59.198Z,65.75
2022-12-04T17:37:26.053Z,62.70
2022-12-04T17:39:52.501Z,66.05
2022-12-04T17:42:19.335Z,68.32
2022-12-04T17:44:45.800Z,61.03
2022-12-04T17:47:12.390Z,63.53
2022-12-04T17:49:39.032Z,60.92
2022-12-04T17:52:05.569Z,63.78
2022-12-04T17:54:32.150Z,71.15
2022-12-04T17:56:58.581Z,62.90
2022-12-04T17:59:25.052Z,59.97
2022-12-04T18:01:51.486Z,62.40
2022-12-04T18:04:19.307Z,64.30
2022-12-04T18:06:46.486Z,60.50
2022-12-04T18:09:15.860Z,62.78
2022-12-04T18:11:45.112Z,61.00
2022-12-04T18:14:14.318Z,63.03
2022-12-04T18:16:44.100Z,56.60
2022-12-04T18:19:11.351Z,65.15
2022-12-04T18:21:37.774Z,60.15
2022-12-04T18:24:05.329Z,54.92
2022-12-04T18:26:35.021Z,59.13
2022-12-04T18:29:01.966Z,54.72
2022-12-04T18:31:28.489Z,60.45
2022-12-04T18:33:54.918Z,61.88
2022-12-04T18:36:24.178Z,48.38
2022-12-04T18:38:55.976Z,56.65
2022-12-04T18:41:23.561Z,51.75
2022-12-04T18:43:50.693Z,58.22
2022-12-04T18:46:18.064Z,56.60
2022-12-04T18:48:45.906Z,53.75
2022-12-04T18:51:21.840Z,59.72
2022-12-04T18:53:49.209Z,53.83
2022-12-04T18:56:15.851Z,58.95
2022-12-04T18:58:42.783Z,55.88
2022-12-04T19:01:11.639Z,53.83
2022-12-04T19:03:38.300Z,55.72
2022-12-04T19:06:04.884Z,52.08
2022-12-04T19:08:34.950Z,52.75
2022-12-04T19:11:11.745Z,49.85
2022-12-04T19:13:38.654Z,47.33
2022-12-04T19:16:10.281Z,51.28
2022-12-04T19:18:36.806Z,55.97
2022-12-04T19:21:05.569Z,52.40
2022-12-04T19:23:32.003Z,50.17
2022-12-04T19:26:00.116Z,55.13
2022-12-04T19:28:30.542Z,49.28
2022-12-04T19:30:57.438Z,51.13
2022-12-04T19:33:25.067Z,52.75
2022-12-04T19:36:01.621Z,51.78
2022-12-04T19:38:29.615Z,54.25
2022-12-04T19:41:09.331Z,58.50
2022-12-04T19:43:42.058Z,58.80
2022-12-04T19:46:11.121Z,55.10
2022-12-04T19:48:38.451Z,62.75
2022-12-04T19:51:08.343Z,60.88
2022-12-04T19:53:40.693Z,58.47
2022-12-04T19:56:15.274Z,64.25
2022-12-04T19:58:42.810Z,66.88
2022-12-04T20:01:14.070Z,57.38
2022-12-04T20:03:40.980Z,58.97
2022-12-04T20:06:14.821Z,58.97
2022-12-04T20:08:42.390Z,62.03
2022-12-04T20:11:17.636Z,61.47
2022-12-04T20:13:45.755Z,63.45
2022-12-04T20:16:14.462Z,60.47
2022-12-04T20:18:42.442Z,61.85
2022-12-04T20:21:12.699Z,63.03
2022-12-04T20:26:08.605Z,62.40
2022-12-04T20:28:36.309Z,57.88
2022-12-04T20:31:15.753Z,61.13
2022-12-04T20:33:43.202Z,58.30
2022-12-04T20:36:10.894Z,56.80
2022-12-04T20:38:37.845Z,55.20
2022-12-04T20:41:10.552Z,59.97
2022-12-04T20:43:37.203Z,65.13
2022-12-04T20:46:17.312Z,67.43
2022-12-04T20:48:48.343Z,64.55
2022-12-04T20:51:25.687Z,62.83
2022-12-04T20:53:53.934Z,62.40
2022-12-04T20:56:25.951Z,67.97
2022-12-04T20:58:57.892Z,55.55
2022-12-04T21:01:24.973Z,59.72
2022-12-04T21:03:53.111Z,56.60
2022-12-04T21:06:34.019Z,61.35
2022-12-04T21:09:10.183Z,59.38
2022-12-04T21:11:40.178Z,60.75
2022-12-04T21:14:31.646Z,58.72
2022-12-04T21:16:58.427Z,66.13
2022-12-04T21:19:26.030Z,61.67
2022-12-04T21:21:52.852Z,58.72
2022-12-04T21:24:21.439Z,59.67
2022-12-04T21:26:48.224Z,61.53
2022-12-04T21:29:15.487Z,66.13
2022-12-04T21:31:42.428Z,63.33
2022-12-04T21:34:12.489Z,59.88
2022-12-04T21:36:39.700Z,64.38
2022-12-04T21:39:07.705Z,61.38
2022-12-04T21:41:53.280Z,66.75
2022-12-04T21:44:21.194Z,62.58
2022-12-04T21:46:48.578Z,60.75
2022-12-04T21:49:16.585Z,62.08
2022-12-04T21:51:59.234Z,64.28
2022-12-04T21:54:29.631Z,61.25
2022-12-04T21:56:59.381Z,64.95
2022-12-04T21:59:26.269Z,63.97
2022-12-04T22:01:52.936Z,60.35
2022-12-04T22:04:19.782Z,65.80
2022-12-04T22:06:46.394Z,58.47
2022-12-04T22:09:13.269Z,53.33
2022-12-04T22:11:43.369Z,58.03
2022-12-04T22:14:11.067Z,58.45
2022-12-04T22:16:42.006Z,56.65
2022-12-04T22:19:10.133Z,54.40
2022-12-04T22:21:36.544Z,59.03
2022-12-04T22:24:04.262Z,56.33
2022-12-04T22:26:31.753Z,61.47
2022-12-04T22:28:58.234Z,58.75
2022-12-04T22:31:26.806Z,61.28
2022-12-04T22:33:55.729Z,59.35
2022-12-04T22:36:24.948Z,62.63
2022-12-04T22:39:09.752Z,60.17
2022-12-04T22:41:37.391Z,65.47
2022-12-04T22:44:04.022Z,57.28
2022-12-04T22:46:30.710Z,59.28
2022-12-04T22:48:58.924Z,60.83
2022-12-04T22:51:25.737Z,59.80
2022-12-04T22:53:54.602Z,60.80
2022-12-04T22:56:26.620Z,59.65
2022-12-04T22:58:53.891Z,58.03
2022-12-04T23:01:28.242Z,59.42
2022-12-04T23:03:55.259Z,57.40
2022-12-04T23:06:25.840Z,55.65
2022-12-04T23:09:01.720Z,56.88
2022-12-04T23:11:29.060Z,57.92
2022-12-04T23:13:59.936Z,50.65
2022-12-04T23:16:29.670Z,56.83
2022-12-04T23:18:57.113Z,54.53
2022-12-04T23:21:24.845Z,52.85
2022-12-04T23:23:52.740Z,49.67
2022-12-04T23:26:26.218Z,48.85
2022-12-04T23:28:53.122Z,53.75
2022-12-04T23:31:19.733Z,52.58
2022-12-04T23:33:46.299Z,53.85
2022-12-04T23:36:13.892Z,55.38
2022-12-04T23:38:41.781Z,51.08
2022-12-04T23:41:12.377Z,53.13
2022-12-04T23:43:39.872Z,52.00
2022-12-04T23:46:11.011Z,55.97
2022-12-04T23:48:39.320Z,52.65
2022-12-04T23:51:06.394Z,48.03
2022-12-04T23:53:32.840Z,52.15
2022-12-04T23:56:02.420Z,45.22
2022-12-04T23:58:28.892Z,45.85
